sensor_id;sensor_type;location;lat;lon;timestamp;P1;durP1;ratioP1;P2;durP2;ratioP2
17598;SDS011;8918;52.092;5.232;2024-01-15T00:02:07;7.10;;;2.00;;
17598;SDS011;8918;52.092;5.232;2024-01-15T00:04:37;8.40;;;1.60;;
17598;SDS011;8918;52.092;5.232;2024-01-15T00:07:04;8.07;;;1.50;;
17598;SDS011;8918;52.092;5.232;2024-01-15T00:09:30;7.07;;;1.77;;
17598;SDS011;8918;52.092;5.232;2024-01-15T00:11:55;7.57;;;2.20;;
17598;SDS011;8918;52.092;5.232;2024-01-15T00:14:22;8.47;;;1.80;;
17598;SDS011;8918;52.092;5.232;2024-01-15T00:16:47;7.83;;;2.00;;
17598;SDS011;8918;52.092;5.232;2024-01-15T00:19:16;10.60;;;1.77;;
17598;SDS011;8918;52.092;5.232;2024-01-15T00:21:42;9.43;;;1.83;;
17598;SDS011;8918;52.092;5.232;2024-01-15T00:24:09;10.93;;;2.00;;
17598;SDS011;8918;52.092;5.232;2024-01-15T00:26:34;7.50;;;1.60;;
17598;SDS011;8918;52.092;5.232;2024-01-15T00:29:00;6.30;;;1.90;;
17598;SDS011;8918;52.092;5.232;2024-01-15T00:31:26;7.53;;;1.63;;
17598;SDS011;8918;52.092;5.232;2024-01-15T00:33:52;7.67;;;1.93;;
17598;SDS011;8918;52.092;5.232;2024-01-15T00:36:17;6.10;;;1.70;;
17598;SDS011;8918;52.092;5.232;2024-01-15T00:38:46;6.73;;;2.13;;
17598;SDS011;8918;52.092;5.232;2024-01-15T00:41:12;9.97;;;1.80;;
17598;SDS011;8918;52.092;5.232;2024-01-15T00:43:38;9.27;;;2.70;;
17598;SDS011;8918;52.092;5.232;2024-01-15T00:46:04;9.33;;;2.00;;
17598;SDS011;8918;52.092;5.232;2024-01-15T00:48:30;8.37;;;1.53;;
17598;SDS011;8918;52.092;5.232;2024-01-15T00:50:56;7.27;;;1.53;;
17598;SDS011;8918;52.092;5.232;2024-01-15T00:53:22;13.67;;;2.23;;
17598;SDS011;8918;52.092;5.232;2024-01-15T00:55:48;8.93;;;1.70;;
17598;SDS011;8918;52.092;5.232;2024-01-15T00:58:14;10.33;;;1.70;;
17598;SDS011;8918;52.092;5.232;2024-01-15T01:00:40;7.90;;;1.87;;
17598;SDS011;8918;52.092;5.232;2024-01-15T01:03:05;11.53;;;1.77;;
17598;SDS011;8918;52.092;5.232;2024-01-15T01:05:32;11.57;;;2.10;;
17598;SDS011;8918;52.092;5.232;2024-01-15T01:07:59;10.07;;;1.90;;
17598;SDS011;8918;52.092;5.232;2024-01-15T01:10:24;9.27;;;1.87;;
17598;SDS011;8918;52.092;5.232;2024-01-15T01:12:50;9.97;;;1.80;;
17598;SDS011;8918;52.092;5.232;2024-01-15T01:15:15;7.50;;;1.60;;
17598;SDS011;8918;52.092;5.232;2024-01-15T01:17:41;9.47;;;2.20;;
17598;SDS011;8918;52.092;5.232;2024-01-15T01:20:07;13.87;;;1.97;;
17598;SDS011;8918;52.092;5.232;2024-01-15T01:22:34;8.77;;;1.67;;
17598;SDS011;8918;52.092;5.232;2024-01-15T01:25:00;10.27;;;1.83;;
17598;SDS011;8918;52.092;5.232;2024-01-15T01:27:26;14.97;;;2.13;;
17598;SDS011;8918;52.092;5.232;2024-01-15T01:29:51;8.00;;;1.77;;
17598;SDS011;8918;52.092;5.232;2024-01-15T01:32:17;9.07;;;1.80;;
17598;SDS011;8918;52.092;5.232;2024-01-15T01:34:43;11.60;;;2.00;;
17598;SDS011;8918;52.092;5.232;2024-01-15T01:37:09;6.17;;;1.63;;
17598;SDS011;8918;52.092;5.232;2024-01-15T01:39:37;9.80;;;1.60;;
17598;SDS011;8918;52.092;5.232;2024-01-15T01:42:03;6.87;;;1.77;;
17598;SDS011;8918;52.092;5.232;2024-01-15T01:44:29;7.13;;;1.40;;
17598;SDS011;8918;52.092;5.232;2024-01-15T01:46:55;8.03;;;1.83;;
17598;SDS011;8918;52.092;5.232;2024-01-15T01:49:22;10.23;;;1.60;;
17598;SDS011;8918;52.092;5.232;2024-01-15T01:51:48;7.23;;;1.60;;
17598;SDS011;8918;52.092;5.232;2024-01-15T01:54:13;10.87;;;1.43;;
17598;SDS011;8918;52.092;5.232;2024-01-15T01:56:40;10.67;;;1.90;;
17598;SDS011;8918;52.092;5.232;2024-01-15T01:59:07;10.57;;;1.87;;
17598;SDS011;8918;52.092;5.232;2024-01-15T02:01:34;8.27;;;1.50;;
17598;SDS011;8918;52.092;5.232;2024-01-15T02:04:01;5.63;;;1.57;;
17598;SDS011;8918;52.092;5.232;2024-01-15T02:06:26;8.67;;;1.57;;
17598;SDS011;8918;52.092;5.232;2024-01-15T02:08:52;6.47;;;1.13;;
17598;SDS011;8918;52.092;5.232;2024-01-15T02:11:18;5.53;;;1.33;;
17598;SDS011;8918;52.092;5.232;2024-01-15T02:13:44;7.53;;;1.47;;
17598;SDS011;8918;52.092;5.232;2024-01-15T02:16:09;8.23;;;1.57;;
17598;SDS011;8918;52.092;5.232;2024-01-15T02:18:42;6.97;;;1.30;;
17598;SDS011;8918;52.092;5.232;2024-01-15T02:21:08;6.93;;;1.50;;
17598;SDS011;8918;52.092;5.232;2024-01-15T02:23:34;2.73;;;1.30;;
17598;SDS011;8918;52.092;5.232;2024-01-15T02:26:00;5.23;;;1.10;;
17598;SDS011;8918;52.092;5.232;2024-01-15T02:28:26;4.77;;;0.90;;
17598;SDS011;8918;52.092;5.232;2024-01-15T02:30:52;2.03;;;0.77;;
17598;SDS011;8918;52.092;5.232;2024-01-15T02:33:18;2.83;;;0.87;;
17598;SDS011;8918;52.092;5.232;2024-01-15T02:35:43;3.17;;;1.00;;
17598;SDS011;8918;52.092;5.232;2024-01-15T02:38:11;3.40;;;0.80;;
17598;SDS011;8918;52.092;5.232;2024-01-15T02:40:37;2.27;;;0.80;;
17598;SDS011;8918;52.092;5.232;2024-01-15T02:43:04;3.87;;;0.80;;
17598;SDS011;8918;52.092;5.232;2024-01-15T02:45:30;4.73;;;1.33;;
17598;SDS011;8918;52.092;5.232;2024-01-15T02:47:55;2.80;;;0.80;;
17598;SDS011;8918;52.092;5.232;2024-01-15T02:50:21;4.80;;;1.00;;
17598;SDS011;8918;52.092;5.232;2024-01-15T02:52:47;4.73;;;1.20;;
17598;SDS011;8918;52.092;5.232;2024-01-15T02:55:13;4.37;;;1.00;;
17598;SDS011;8918;52.092;5.232;2024-01-15T02:57:38;4.23;;;1.17;;
17598;SDS011;8918;52.092;5.232;2024-01-15T03:00:04;4.97;;;1.03;;
17598;SDS011;8918;52.092;5.232;2024-01-15T03:02:30;7.73;;;1.20;;
17598;SDS011;8918;52.092;5.232;2024-01-15T03:04:58;9.27;;;1.17;;
17598;SDS011;8918;52.092;5.232;2024-01-15T03:07:24;4.03;;;1.37;;
17598;SDS011;8918;52.092;5.232;2024-01-15T03:09:50;5.30;;;1.20;;
17598;SDS011;8918;52.092;5.232;2024-01-15T03:12:15;4.90;;;1.13;;
17598;SDS011;8918;52.092;5.232;2024-01-15T03:14:41;5.23;;;0.93;;
17598;SDS011;8918;52.092;5.232;2024-01-15T03:17:07;4.57;;;1.20;;
17598;SDS011;8918;52.092;5.232;2024-01-15T03:19:35;4.37;;;1.20;;
17598;SDS011;8918;52.092;5.232;2024-01-15T03:22:00;6.57;;;1.00;;
17598;SDS011;8918;52.092;5.232;2024-01-15T03:24:27;4.07;;;0.97;;
17598;SDS011;8918;52.092;5.232;2024-01-15T03:26:53;7.93;;;1.10;;
17598;SDS011;8918;52.092;5.232;2024-01-15T03:29:18;4.30;;;0.97;;
17598;SDS011;8918;52.092;5.232;2024-01-15T03:31:44;8.47;;;1.10;;
17598;SDS011;8918;52.092;5.232;2024-01-15T03:34:10;5.97;;;1.10;;
17598;SDS011;8918;52.092;5.232;2024-01-15T03:36:36;6.40;;;1.30;;
17598;SDS011;8918;52.092;5.232;2024-01-15T03:39:02;3.93;;;1.00;;
17598;SDS011;8918;52.092;5.232;2024-01-15T03:41:27;5.43;;;1.10;;
17598;SDS011;8918;52.092;5.232;2024-01-15T03:43:53;3.83;;;1.40;;
17598;SDS011;8918;52.092;5.232;2024-01-15T03:46:18;4.27;;;1.20;;
17598;SDS011;8918;52.092;5.232;2024-01-15T03:48:44;7.93;;;1.50;;
17598;SDS011;8918;52.092;5.232;2024-01-15T03:51:10;7.07;;;1.57;;
17598;SDS011;8918;52.092;5.232;2024-01-15T03:53:35;4.40;;;1.30;;
17598;SDS011;8918;52.092;5.232;2024-01-15T03:56:03;6.47;;;1.60;;
17598;SDS011;8918;52.092;5.232;2024-01-15T03:58:28;7.87;;;1.37;;
17598;SDS011;8918;52.092;5.232;2024-01-15T04:00:54;4.40;;;1.17;;
17598;SDS011;8918;52.092;5.232;2024-01-15T04:03:19;6.67;;;1.27;;
17598;SDS011;8918;52.092;5.232;2024-01-15T04:05:45;5.03;;;1.30;;
17598;SDS011;8918;52.092;5.232;2024-01-15T04:08:11;5.60;;;1.20;;
17598;SDS011;8918;52.092;5.232;2024-01-15T04:10:36;7.50;;;1.30;;
17598;SDS011;8918;52.092;5.232;2024-01-15T04:13:02;4.80;;;1.40;;
17598;SDS011;8918;52.092;5.232;2024-01-15T04:15:28;5.43;;;1.80;;
17598;SDS011;8918;52.092;5.232;2024-01-15T04:17:54;6.57;;;1.70;;
17598;SDS011;8918;52.092;5.232;2024-01-15T04:20:20;5.07;;;1.00;;
17598;SDS011;8918;52.092;5.232;2024-01-15T04:22:45;6.03;;;1.40;;
17598;SDS011;8918;52.092;5.232;2024-01-15T04:25:11;6.83;;;1.20;;
17598;SDS011;8918;52.092;5.232;2024-01-15T04:27:36;7.47;;;1.50;;
17598;SDS011;8918;52.092;5.232;2024-01-15T04:30:02;6.03;;;1.30;;
17598;SDS011;8918;52.092;5.232;2024-01-15T04:32:28;4.00;;;1.10;;
17598;SDS011;8918;52.092;5.232;2024-01-15T04:34:54;5.93;;;1.30;;
17598;SDS011;8918;52.092;5.232;2024-01-15T04:37:20;5.57;;;1.73;;
17598;SDS011;8918;52.092;5.232;2024-01-15T04:39:46;5.63;;;1.00;;
17598;SDS011;8918;52.092;5.232;2024-01-15T04:42:11;7.03;;;1.33;;
17598;SDS011;8918;52.092;5.232;2024-01-15T04:44:37;4.97;;;1.43;;
17598;SDS011;8918;52.092;5.232;2024-01-15T04:47:02;6.50;;;1.17;;
17598;SDS011;8918;52.092;5.232;2024-01-15T04:49:28;4.47;;;1.00;;
17598;SDS011;8918;52.092;5.232;2024-01-15T04:51:55;5.73;;;1.10;;
17598;SDS011;8918;52.092;5.232;2024-01-15T04:54:20;7.50;;;1.17;;
17598;SDS011;8918;52.092;5.232;2024-01-15T04:56:46;4.97;;;1.07;;
17598;SDS011;8918;52.092;5.232;2024-01-15T04:59:12;6.60;;;1.20;;
17598;SDS011;8918;52.092;5.232;2024-01-15T05:01:39;5.10;;;1.03;;
17598;SDS011;8918;52.092;5.232;2024-01-15T05:04:05;6.87;;;1.13;;
17598;SDS011;8918;52.092;5.232;2024-01-15T05:06:30;9.47;;;1.30;;
17598;SDS011;8918;52.092;5.232;2024-01-15T05:08:56;3.83;;;0.93;;
17598;SDS011;8918;52.092;5.232;2024-01-15T05:11:22;8.37;;;1.47;;
17598;SDS011;8918;52.092;5.232;2024-01-15T05:13:48;4.77;;;1.00;;
17598;SDS011;8918;52.092;5.232;2024-01-15T05:16:13;5.00;;;1.23;;
17598;SDS011;8918;52.092;5.232;2024-01-15T05:18:39;4.77;;;1.33;;
17598;SDS011;8918;52.092;5.232;2024-01-15T05:21:04;7.27;;;1.20;;
17598;SDS011;8918;52.092;5.232;2024-01-15T05:23:33;3.70;;;1.00;;
17598;SDS011;8918;52.092;5.232;2024-01-15T05:25:59;3.90;;;1.27;;
17598;SDS011;8918;52.092;5.232;2024-01-15T05:28:25;3.30;;;1.07;;
17598;SDS011;8918;52.092;5.232;2024-01-15T05:30:50;3.97;;;1.20;;
17598;SDS011;8918;52.092;5.232;2024-01-15T05:33:17;4.33;;;1.20;;
17598;SDS011;8918;52.092;5.232;2024-01-15T05:35:42;4.67;;;1.30;;
17598;SDS011;8918;52.092;5.232;2024-01-15T05:38:08;4.87;;;1.30;;
17598;SDS011;8918;52.092;5.232;2024-01-15T05:40:34;4.17;;;1.00;;
17598;SDS011;8918;52.092;5.232;2024-01-15T05:42:59;3.13;;;1.40;;
17598;SDS011;8918;52.092;5.232;2024-01-15T05:45:29;2.73;;;1.10;;
17598;SDS011;8918;52.092;5.232;2024-01-15T05:47:55;5.03;;;1.20;;
17598;SDS011;8918;52.092;5.232;2024-01-15T05:50:21;3.63;;;1.07;;
17598;SDS011;8918;52.092;5.232;2024-01-15T05:52:47;4.47;;;0.80;;
17598;SDS011;8918;52.092;5.232;2024-01-15T05:55:13;5.00;;;1.20;;
17598;SDS011;8918;52.092;5.232;2024-01-15T05:57:38;9.10;;;1.20;;
17598;SDS011;8918;52.092;5.232;2024-01-15T06:00:04;4.20;;;1.03;;
17598;SDS011;8918;52.092;5.232;2024-01-15T06:02:31;3.67;;;1.40;;
17598;SDS011;8918;52.092;5.232;2024-01-15T06:04:56;6.93;;;1.50;;
17598;SDS011;8918;52.092;5.232;2024-01-15T06:07:22;3.30;;;1.00;;
17598;SDS011;8918;52.092;5.232;2024-01-15T06:09:48;3.23;;;0.97;;
17598;SDS011;8918;52.092;5.232;2024-01-15T06:12:13;2.97;;;1.10;;
17598;SDS011;8918;52.092;5.232;2024-01-15T06:14:39;4.83;;;1.80;;
17598;SDS011;8918;52.092;5.232;2024-01-15T06:17:06;3.10;;;1.03;;
17598;SDS011;8918;52.092;5.232;2024-01-15T06:19:32;4.93;;;1.50;;
17598;SDS011;8918;52.092;5.232;2024-01-15T06:21:57;5.23;;;1.20;;
17598;SDS011;8918;52.092;5.232;2024-01-15T06:24:23;2.20;;;0.87;;
17598;SDS011;8918;52.092;5.232;2024-01-15T06:26:48;2.83;;;1.00;;
17598;SDS011;8918;52.092;5.232;2024-01-15T06:29:14;2.90;;;0.90;;
17598;SDS011;8918;52.092;5.232;2024-01-15T06:31:40;3.53;;;1.10;;
17598;SDS011;8918;52.092;5.232;2024-01-15T06:34:05;2.73;;;1.10;;
17598;SDS011;8918;52.092;5.232;2024-01-15T06:36:31;6.20;;;1.07;;
17598;SDS011;8918;52.092;5.232;2024-01-15T06:38:56;5.60;;;1.30;;
17598;SDS011;8918;52.092;5.232;2024-01-15T06:41:22;4.93;;;1.10;;
17598;SDS011;8918;52.092;5.232;2024-01-15T06:43:48;5.67;;;0.87;;
17598;SDS011;8918;52.092;5.232;2024-01-15T06:46:19;3.70;;;1.20;;
17598;SDS011;8918;52.092;5.232;2024-01-15T06:48:46;2.77;;;1.30;;
17598;SDS011;8918;52.092;5.232;2024-01-15T06:51:12;2.43;;;1.50;;
17598;SDS011;8918;52.092;5.232;2024-01-15T06:53:38;7.60;;;1.57;;
17598;SDS011;8918;52.092;5.232;2024-01-15T06:56:04;4.03;;;1.27;;
17598;SDS011;8918;52.092;5.232;2024-01-15T06:58:32;2.77;;;1.40;;
17598;SDS011;8918;52.092;5.232;2024-01-15T07:00:58;2.77;;;1.40;;
17598;SDS011;8918;52.092;5.232;2024-01-15T07:03:24;3.90;;;1.37;;
17598;SDS011;8918;52.092;5.232;2024-01-15T07:05:50;3.73;;;1.73;;
17598;SDS011;8918;52.092;5.232;2024-01-15T07:08:15;4.33;;;1.60;;
17598;SDS011;8918;52.092;5.232;2024-01-15T07:10:43;2.90;;;1.70;;
17598;SDS011;8918;52.092;5.232;2024-01-15T07:13:09;6.73;;;2.40;;
17598;SDS011;8918;52.092;5.232;2024-01-15T07:15:34;4.30;;;1.97;;
17598;SDS011;8918;52.092;5.232;2024-01-15T07:18:00;4.53;;;2.00;;
17598;SDS011;8918;52.092;5.232;2024-01-15T07:20:28;8.17;;;2.23;;
17598;SDS011;8918;52.092;5.232;2024-01-15T07:22:54;5.73;;;2.00;;
17598;SDS011;8918;52.092;5.232;2024-01-15T07:25:19;5.20;;;1.97;;
17598;SDS011;8918;52.092;5.232;2024-01-15T07:27:45;7.97;;;2.00;;
17598;SDS011;8918;52.092;5.232;2024-01-15T07:30:12;4.67;;;1.60;;
17598;SDS011;8918;52.092;5.232;2024-01-15T07:32:38;3.07;;;1.40;;
17598;SDS011;8918;52.092;5.232;2024-01-15T07:35:04;4.77;;;1.70;;
17598;SDS011;8918;52.092;5.232;2024-01-15T07:37:30;6.20;;;1.77;;
17598;SDS011;8918;52.092;5.232;2024-01-15T07:39:56;3.13;;;1.43;;
17598;SDS011;8918;52.092;5.232;2024-01-15T07:42:21;8.57;;;2.00;;
17598;SDS011;8918;52.092;5.232;2024-01-15T07:44:47;4.03;;;1.67;;
17598;SDS011;8918;52.092;5.232;2024-01-15T07:47:13;4.63;;;1.63;;
17598;SDS011;8918;52.092;5.232;2024-01-15T07:49:38;7.57;;;1.73;;
17598;SDS011;8918;52.092;5.232;2024-01-15T07:52:04;3.77;;;1.73;;
17598;SDS011;8918;52.092;5.232;2024-01-15T07:54:30;4.90;;;1.90;;
17598;SDS011;8918;52.092;5.232;2024-01-15T07:56:57;4.70;;;1.97;;
17598;SDS011;8918;52.092;5.232;2024-01-15T07:59:24;5.93;;;1.90;;
17598;SDS011;8918;52.092;5.232;2024-01-15T08:01:51;9.37;;;2.10;;
17598;SDS011;8918;52.092;5.232;2024-01-15T08:04:17;5.10;;;1.50;;
17598;SDS011;8918;52.092;5.232;2024-01-15T08:06:43;6.97;;;1.70;;
17598;SDS011;8918;52.092;5.232;2024-01-15T08:09:10;7.97;;;1.80;;
17598;SDS011;8918;52.092;5.232;2024-01-15T08:11:35;4.20;;;1.90;;
17598;SDS011;8918;52.092;5.232;2024-01-15T08:14:03;5.20;;;1.93;;
17598;SDS011;8918;52.092;5.232;2024-01-15T08:16:29;5.30;;;1.50;;
17598;SDS011;8918;52.092;5.232;2024-01-15T08:18:55;8.70;;;1.40;;
17598;SDS011;8918;52.092;5.232;2024-01-15T08:21:21;5.57;;;1.70;;
17598;SDS011;8918;52.092;5.232;2024-01-15T08:23:47;5.43;;;1.67;;
17598;SDS011;8918;52.092;5.232;2024-01-15T08:26:12;6.63;;;1.40;;
17598;SDS011;8918;52.092;5.232;2024-01-15T08:28:38;5.73;;;1.63;;
17598;SDS011;8918;52.092;5.232;2024-01-15T08:31:03;7.70;;;1.70;;
17598;SDS011;8918;52.092;5.232;2024-01-15T08:33:29;7.07;;;2.10;;
17598;SDS011;8918;52.092;5.232;2024-01-15T08:35:55;6.13;;;2.10;;
17598;SDS011;8918;52.092;5.232;2024-01-15T08:38:20;9.40;;;1.80;;
17598;SDS011;8918;52.092;5.232;2024-01-15T08:40:46;9.13;;;2.10;;
17598;SDS011;8918;52.092;5.232;2024-01-15T08:43:12;7.83;;;2.10;;
17598;SDS011;8918;52.092;5.232;2024-01-15T08:45:38;5.30;;;1.80;;
17598;SDS011;8918;52.092;5.232;2024-01-15T08:48:03;8.13;;;2.03;;
17598;SDS011;8918;52.092;5.232;2024-01-15T08:50:29;8.00;;;1.80;;
17598;SDS011;8918;52.092;5.232;2024-01-15T08:52:57;7.63;;;1.80;;
17598;SDS011;8918;52.092;5.232;2024-01-15T08:55:22;6.50;;;2.00;;
17598;SDS011;8918;52.092;5.232;2024-01-15T08:57:48;5.17;;;1.73;;
17598;SDS011;8918;52.092;5.232;2024-01-15T09:00:17;4.20;;;1.47;;
17598;SDS011;8918;52.092;5.232;2024-01-15T09:02:43;5.47;;;1.43;;
17598;SDS011;8918;52.092;5.232;2024-01-15T09:05:09;3.60;;;1.63;;
17598;SDS011;8918;52.092;5.232;2024-01-15T09:07:35;9.13;;;1.90;;
17598;SDS011;8918;52.092;5.232;2024-01-15T09:10:02;5.77;;;1.50;;
17598;SDS011;8918;52.092;5.232;2024-01-15T09:12:28;4.57;;;1.30;;
17598;SDS011;8918;52.092;5.232;2024-01-15T09:14:54;3.00;;;1.30;;
17598;SDS011;8918;52.092;5.232;2024-01-15T09:17:20;6.67;;;1.37;;
17598;SDS011;8918;52.092;5.232;2024-01-15T09:19:49;6.77;;;1.43;;
17598;SDS011;8918;52.092;5.232;2024-01-15T09:22:15;5.60;;;1.37;;
17598;SDS011;8918;52.092;5.232;2024-01-15T09:24:43;5.50;;;1.33;;
17598;SDS011;8918;52.092;5.232;2024-01-15T09:27:09;3.80;;;1.10;;
17598;SDS011;8918;52.092;5.232;2024-01-15T09:29:35;3.23;;;1.40;;
17598;SDS011;8918;52.092;5.232;2024-01-15T09:32:04;4.47;;;1.37;;
17598;SDS011;8918;52.092;5.232;2024-01-15T09:34:30;6.37;;;2.27;;
17598;SDS011;8918;52.092;5.232;2024-01-15T09:36:56;6.47;;;1.83;;
17598;SDS011;8918;52.092;5.232;2024-01-15T09:39:22;6.83;;;1.70;;
17598;SDS011;8918;52.092;5.232;2024-01-15T09:41:48;6.13;;;1.70;;
17598;SDS011;8918;52.092;5.232;2024-01-15T09:44:14;7.30;;;1.80;;
17598;SDS011;8918;52.092;5.232;2024-01-15T09:46:41;8.90;;;1.50;;
17598;SDS011;8918;52.092;5.232;2024-01-15T09:49:09;7.37;;;1.90;;
17598;SDS011;8918;52.092;5.232;2024-01-15T09:51:35;9.73;;;1.90;;
17598;SDS011;8918;52.092;5.232;2024-01-15T09:54:01;7.00;;;1.60;;
17598;SDS011;8918;52.092;5.232;2024-01-15T09:56:29;5.23;;;1.90;;
17598;SDS011;8918;52.092;5.232;2024-01-15T09:58:58;6.07;;;1.67;;
17598;SDS011;8918;52.092;5.232;2024-01-15T10:01:25;6.67;;;1.80;;
17598;SDS011;8918;52.092;5.232;2024-01-15T10:03:51;3.57;;;1.63;;
17598;SDS011;8918;52.092;5.232;2024-01-15T10:06:18;9.43;;;2.10;;
17598;SDS011;8918;52.092;5.232;2024-01-15T10:08:48;8.10;;;1.77;;
17598;SDS011;8918;52.092;5.232;2024-01-15T10:11:15;7.77;;;1.77;;
17598;SDS011;8918;52.092;5.232;2024-01-15T10:13:44;5.17;;;1.43;;
17598;SDS011;8918;52.092;5.232;2024-01-15T10:16:10;6.33;;;1.50;;
17598;SDS011;8918;52.092;5.232;2024-01-15T10:18:36;5.73;;;1.43;;
17598;SDS011;8918;52.092;5.232;2024-01-15T10:21:02;4.70;;;1.53;;
17598;SDS011;8918;52.092;5.232;2024-01-15T10:23:29;5.37;;;1.60;;
17598;SDS011;8918;52.092;5.232;2024-01-15T10:25:57;3.87;;;1.50;;
17598;SDS011;8918;52.092;5.232;2024-01-15T10:28:23;6.60;;;1.30;;
17598;SDS011;8918;52.092;5.232;2024-01-15T10:30:56;5.13;;;1.50;;
17598;SDS011;8918;52.092;5.232;2024-01-15T10:33:24;4.97;;;1.20;;
17598;SDS011;8918;52.092;5.232;2024-01-15T10:35:50;5.83;;;1.40;;
17598;SDS011;8918;52.092;5.232;2024-01-15T10:38:20;8.13;;;1.53;;
17598;SDS011;8918;52.092;5.232;2024-01-15T10:40:47;9.37;;;1.50;;
17598;SDS011;8918;52.092;5.232;2024-01-15T10:43:16;4.30;;;1.23;;
17598;SDS011;8918;52.092;5.232;2024-01-15T10:45:43;7.90;;;1.50;;
17598;SDS011;8918;52.092;5.232;2024-01-15T10:48:10;4.20;;;1.50;;
17598;SDS011;8918;52.092;5.232;2024-01-15T10:50:36;6.67;;;1.73;;
17598;SDS011;8918;52.092;5.232;2024-01-15T10:53:01;7.83;;;1.40;;
17598;SDS011;8918;52.092;5.232;2024-01-15T10:55:29;6.70;;;1.53;;
17598;SDS011;8918;52.092;5.232;2024-01-15T10:57:55;6.17;;;1.50;;
17598;SDS011;8918;52.092;5.232;2024-01-15T11:00:22;7.60;;;1.70;;
17598;SDS011;8918;52.092;5.232;2024-01-15T11:02:50;8.70;;;1.50;;
17598;SDS011;8918;52.092;5.232;2024-01-15T11:05:16;3.83;;;1.20;;
17598;SDS011;8918;52.092;5.232;2024-01-15T11:07:43;4.70;;;1.20;;
17598;SDS011;8918;52.092;5.232;2024-01-15T11:10:35;7.30;;;1.53;;
17598;SDS011;8918;52.092;5.232;2024-01-15T11:13:04;7.67;;;1.43;;
17598;SDS011;8918;52.092;5.232;2024-01-15T11:15:30;6.87;;;1.60;;
17598;SDS011;8918;52.092;5.232;2024-01-15T11:17:59;6.37;;;1.40;;
17598;SDS011;8918;52.092;5.232;2024-01-15T11:20:26;7.70;;;1.83;;
17598;SDS011;8918;52.092;5.232;2024-01-15T11:22:52;8.07;;;1.43;;
17598;SDS011;8918;52.092;5.232;2024-01-15T11:25:18;7.47;;;1.43;;
17598;SDS011;8918;52.092;5.232;2024-01-15T11:30:17;7.17;;;1.40;;
17598;SDS011;8918;52.092;5.232;2024-01-15T11:32:47;5.30;;;1.40;;
17598;SDS011;8918;52.092;5.232;2024-01-15T11:35:13;5.43;;;1.33;;
17598;SDS011;8918;52.092;5.232;2024-01-15T11:40:21;6.90;;;1.77;;
17598;SDS011;8918;52.092;5.232;2024-01-15T11:42:47;8.30;;;3.00;;
17598;SDS011;8918;52.092;5.232;2024-01-15T11:45:18;9.77;;;3.40;;
17598;SDS011;8918;52.092;5.232;2024-01-15T11:50:59;7.97;;;2.40;;
17598;SDS011;8918;52.092;5.232;2024-01-15T11:53:27;7.47;;;2.13;;
17598;SDS011;8918;52.092;5.232;2024-01-15T11:56:17;4.40;;;2.20;;
17598;SDS011;8918;52.092;5.232;2024-01-15T11:58:47;10.33;;;2.70;;
17598;SDS011;8918;52.092;5.232;2024-01-15T12:01:12;9.23;;;2.13;;
17598;SDS011;8918;52.092;5.232;2024-01-15T12:03:38;5.00;;;1.83;;
17598;SDS011;8918;52.092;5.232;2024-01-15T12:06:07;3.03;;;1.67;;
17598;SDS011;8918;52.092;5.232;2024-01-15T12:08:35;5.13;;;1.67;;
17598;SDS011;8918;52.092;5.232;2024-01-15T12:11:00;3.07;;;1.00;;
17598;SDS011;8918;52.092;5.232;2024-01-15T12:13:35;5.70;;;1.47;;
17598;SDS011;8918;52.092;5.232;2024-01-15T12:16:02;3.33;;;1.40;;
17598;SDS011;8918;52.092;5.232;2024-01-15T12:18:29;4.67;;;1.10;;
17598;SDS011;8918;52.092;5.232;2024-01-15T12:20:54;3.13;;;1.17;;
17598;SDS011;8918;52.092;5.232;2024-01-15T12:23:20;5.37;;;1.17;;
17598;SDS011;8918;52.092;5.232;2024-01-15T12:25:45;1.93;;;1.00;;
17598;SDS011;8918;52.092;5.232;2024-01-15T12:28:12;3.77;;;1.57;;
17598;SDS011;8918;52.092;5.232;2024-01-15T12:30:38;3.97;;;1.03;;
17598;SDS011;8918;52.092;5.232;2024-01-15T12:33:04;8.50;;;1.53;;
17598;SDS011;8918;52.092;5.232;2024-01-15T12:35:33;6.90;;;1.03;;
17598;SDS011;8918;52.092;5.232;2024-01-15T12:38:00;4.33;;;1.53;;
17598;SDS011;8918;52.092;5.232;2024-01-15T12:40:29;6.03;;;1.30;;
17598;SDS011;8918;52.092;5.232;2024-01-15T12:42:55;6.00;;;1.23;;
17598;SDS011;8918;52.092;5.232;2024-01-15T12:45:21;4.47;;;1.07;;
17598;SDS011;8918;52.092;5.232;2024-01-15T12:47:47;5.13;;;1.40;;
17598;SDS011;8918;52.092;5.232;2024-01-15T12:50:13;2.97;;;1.10;;
17598;SDS011;8918;52.092;5.232;2024-01-15T12:52:41;1.90;;;1.00;;
17598;SDS011;8918;52.092;5.232;2024-01-15T12:55:07;5.37;;;0.93;;
17598;SDS011;8918;52.092;5.232;2024-01-15T12:57:34;3.33;;;1.13;;
17598;SDS011;8918;52.092;5.232;2024-01-15T13:00:01;4.03;;;1.10;;
17598;SDS011;8918;52.092;5.232;2024-01-15T13:02:27;2.73;;;0.87;;
17598;SDS011;8918;52.092;5.232;2024-01-15T13:04:53;1.93;;;1.10;;
17598;SDS011;8918;52.092;5.232;2024-01-15T13:07:20;4.97;;;1.50;;
17598;SDS011;8918;52.092;5.232;2024-01-15T13:09:45;3.27;;;1.20;;
17598;SDS011;8918;52.092;5.232;2024-01-15T13:12:11;3.03;;;1.10;;
17598;SDS011;8918;52.092;5.232;2024-01-15T13:14:37;5.90;;;2.07;;
17598;SDS011;8918;52.092;5.232;2024-01-15T13:17:02;3.73;;;1.50;;
17598;SDS011;8918;52.092;5.232;2024-01-15T13:19:28;8.47;;;3.10;;
17598;SDS011;8918;52.092;5.232;2024-01-15T13:21:58;12.27;;;4.27;;
17598;SDS011;8918;52.092;5.232;2024-01-15T13:24:25;9.63;;;2.23;;
17598;SDS011;8918;52.092;5.232;2024-01-15T13:26:50;5.23;;;1.50;;
17598;SDS011;8918;52.092;5.232;2024-01-15T13:29:16;11.77;;;4.37;;
17598;SDS011;8918;52.092;5.232;2024-01-15T13:31:42;6.03;;;2.23;;
17598;SDS011;8918;52.092;5.232;2024-01-15T13:34:07;6.43;;;2.60;;
17598;SDS011;8918;52.092;5.232;2024-01-15T13:36:34;6.67;;;2.70;;
17598;SDS011;8918;52.092;5.232;2024-01-15T13:38:59;7.57;;;2.53;;
17598;SDS011;8918;52.092;5.232;2024-01-15T13:41:25;7.10;;;1.83;;
17598;SDS011;8918;52.092;5.232;2024-01-15T13:43:52;8.83;;;2.20;;
17598;SDS011;8918;52.092;5.232;2024-01-15T13:46:19;6.37;;;1.93;;
17598;SDS011;8918;52.092;5.232;2024-01-15T13:48:46;10.23;;;2.27;;
17598;SDS011;8918;52.092;5.232;2024-01-15T13:51:12;11.53;;;2.37;;
17598;SDS011;8918;52.092;5.232;2024-01-15T13:53:38;6.57;;;1.83;;
17598;SDS011;8918;52.092;5.232;2024-01-15T13:56:04;8.83;;;2.07;;
17598;SDS011;8918;52.092;5.232;2024-01-15T13:58:30;6.30;;;1.40;;
17598;SDS011;8918;52.092;5.232;2024-01-15T14:00:57;8.43;;;1.50;;
17598;SDS011;8918;52.092;5.232;2024-01-15T14:03:23;4.90;;;1.67;;
17598;SDS011;8918;52.092;5.232;2024-01-15T14:05:50;12.20;;;1.70;;
17598;SDS011;8918;52.092;5.232;2024-01-15T14:08:16;7.57;;;1.80;;
17598;SDS011;8918;52.092;5.232;2024-01-15T14:10:42;4.73;;;1.90;;
17598;SDS011;8918;52.092;5.232;2024-01-15T14:13:07;7.57;;;1.70;;
17598;SDS011;8918;52.092;5.232;2024-01-15T14:15:33;10.37;;;2.00;;
17598;SDS011;8918;52.092;5.232;2024-01-15T14:17:59;6.87;;;2.13;;
17598;SDS011;8918;52.092;5.232;2024-01-15T14:20:28;10.63;;;2.50;;
17598;SDS011;8918;52.092;5.232;2024-01-15T14:22:54;8.50;;;2.00;;
17598;SDS011;8918;52.092;5.232;2024-01-15T14:25:20;9.03;;;1.90;;
17598;SDS011;8918;52.092;5.232;2024-01-15T14:27:46;9.30;;;1.90;;
17598;SDS011;8918;52.092;5.232;2024-01-15T14:30:12;7.40;;;1.90;;
17598;SDS011;8918;52.092;5.232;2024-01-15T14:32:40;8.87;;;2.00;;
17598;SDS011;8918;52.092;5.232;2024-01-15T14:35:06;7.10;;;1.70;;
17598;SDS011;8918;52.092;5.232;2024-01-15T14:37:35;10.67;;;1.93;;
17598;SDS011;8918;52.092;5.232;2024-01-15T14:40:01;6.10;;;1.73;;
17598;SDS011;8918;52.092;5.232;2024-01-15T14:42:29;7.57;;;1.63;;
17598;SDS011;8918;52.092;5.232;2024-01-15T14:44:55;8.33;;;2.10;;
17598;SDS011;8918;52.092;5.232;2024-01-15T14:47:24;9.43;;;1.90;;
17598;SDS011;8918;52.092;5.232;2024-01-15T14:49:49;13.30;;;2.30;;
17598;SDS011;8918;52.092;5.232;2024-01-15T14:52:15;9.80;;;1.70;;
17598;SDS011;8918;52.092;5.232;2024-01-15T14:54:41;8.73;;;2.13;;
17598;SDS011;8918;52.092;5.232;2024-01-15T14:57:07;13.60;;;2.20;;
17598;SDS011;8918;52.092;5.232;2024-01-15T14:59:33;13.07;;;2.83;;
17598;SDS011;8918;52.092;5.232;2024-01-15T15:01:58;10.33;;;2.03;;
17598;SDS011;8918;52.092;5.232;2024-01-15T15:04:27;7.63;;;1.60;;